createdAt,value
2023-04-06T00:00:18.448Z,7.43
2023-04-06T00:03:09.706Z,7.72
2023-04-06T00:05:59.306Z,8.07
2023-04-06T00:08:47.219Z,6.47
2023-04-06T00:11:35.312Z,6.53
2023-04-06T00:14:23.361Z,5.68
2023-04-06T00:17:11.461Z,5.75
2023-04-06T00:19:59.640Z,6.10
2023-04-06T00:22:49.160Z,5.60
2023-04-06T00:25:37.155Z,8.38
2023-04-06T00:28:27.128Z,5.53
2023-04-06T00:31:15.558Z,6.88
2023-04-06T00:34:03.391Z,7.25
2023-04-06T00:36:51.130Z,6.97
2023-04-06T00:39:40.448Z,6.80
2023-04-06T00:42:28.593Z,7.07
2023-04-06T00:45:16.457Z,6.93
2023-04-06T00:48:04.537Z,6.95
2023-04-06T00:50:52.669Z,6.13
2023-04-06T00:53:40.902Z,6.85
2023-04-06T00:56:30.288Z,9.45
2023-04-06T00:59:24.290Z,5.22
2023-04-06T01:02:12.544Z,7.03
2023-04-06T01:05:00.402Z,8.55
2023-04-06T01:07:48.347Z,8.18
2023-04-06T01:10:45.828Z,8.82
2023-04-06T01:13:34.991Z,9.60
2023-04-06T01:16:23.280Z,7.22
2023-04-06T01:19:12.670Z,7.50
2023-04-06T01:22:00.614Z,6.65
2023-04-06T01:24:50.032Z,7.97
2023-04-06T01:27:37.932Z,8.07
2023-04-06T01:30:25.941Z,8.15
2023-04-06T01:33:14.093Z,10.10
2023-04-06T01:36:02.437Z,7.68
2023-04-06T01:38:50.163Z,6.60
2023-04-06T01:41:39.353Z,5.35
2023-04-06T01:44:27.436Z,7.00
2023-04-06T01:47:15.346Z,7.88
2023-04-06T01:50:06.340Z,10.05
2023-04-06T01:52:53.996Z,8.80
2023-04-06T01:55:42.031Z,8.65
2023-04-06T01:58:31.496Z,6.72
2023-04-06T02:01:19.495Z,7.95
2023-04-06T02:04:07.448Z,7.53
2023-04-06T02:06:55.494Z,7.00
2023-04-06T02:09:43.385Z,7.13
2023-04-06T02:12:31.494Z,8.93
2023-04-06T02:15:20.540Z,5.82
2023-04-06T02:18:08.843Z,7.82
2023-04-06T02:20:57.460Z,5.75
2023-04-06T02:23:45.617Z,6.93
2023-04-06T02:26:33.757Z,6.43
2023-04-06T02:29:22.385Z,7.28
2023-04-06T02:32:11.879Z,5.93
2023-04-06T02:34:59.982Z,5.78
2023-04-06T02:37:48.182Z,8.75
2023-04-06T02:40:36.380Z,7.60
2023-04-06T02:43:24.150Z,6.13
2023-04-06T02:46:12.338Z,5.53
2023-04-06T02:49:02.244Z,6.90
2023-04-06T02:51:50.179Z,5.53
2023-04-06T02:54:38.122Z,6.13
2023-04-06T02:57:26.235Z,5.30
2023-04-06T03:00:15.126Z,5.43
2023-04-06T03:03:02.995Z,7.55
2023-04-06T03:05:52.347Z,5.47
2023-04-06T03:08:40.465Z,5.35
2023-04-06T03:11:28.510Z,7.93
2023-04-06T03:14:18.285Z,5.80
2023-04-06T03:17:06.378Z,6.75
2023-04-06T03:19:54.473Z,5.00
2023-04-06T03:22:43.945Z,5.20
2023-04-06T03:25:32.122Z,5.80
2023-04-06T03:28:20.481Z,5.22
2023-04-06T03:31:08.854Z,6.45
2023-04-06T03:33:56.669Z,7.55
2023-04-06T03:36:44.364Z,6.72
2023-04-06T03:39:33.917Z,6.38
2023-04-06T03:42:22.140Z,6.43
2023-04-06T03:45:11.296Z,5.95
2023-04-06T03:47:59.529Z,5.05
2023-04-06T03:50:47.700Z,5.72
2023-04-06T03:53:35.620Z,7.22
2023-04-06T03:56:25.064Z,4.85
2023-04-06T03:59:13.023Z,6.88
2023-04-06T04:02:01.265Z,4.05
2023-04-06T04:04:49.259Z,5.72
2023-04-06T04:07:37.497Z,5.00
2023-04-06T04:10:25.638Z,5.60
2023-04-06T04:13:14.940Z,7.13
2023-04-06T04:16:03.043Z,5.30
2023-04-06T04:18:51.313Z,6.15
2023-04-06T04:21:46.478Z,6.18
2023-04-06T04:24:34.622Z,6.35
2023-04-06T04:27:22.873Z,5.05
2023-04-06T04:30:12.552Z,4.97
2023-04-06T04:33:00.615Z,6.07
2023-04-06T04:35:48.914Z,4.75
2023-04-06T04:38:36.889Z,6.47
2023-04-06T04:41:25.051Z,5.90
2023-04-06T04:44:12.870Z,6.10
2023-04-06T04:47:02.428Z,5.88
2023-04-06T04:49:50.748Z,7.18
2023-04-06T04:52:39.451Z,6.88
2023-04-06T04:55:27.564Z,5.95
2023-04-06T04:58:17.574Z,6.45
2023-04-06T05:01:05.760Z,6.15
2023-04-06T05:03:55.575Z,8.90
2023-04-06T05:06:43.505Z,5.80
2023-04-06T05:09:32.614Z,5.95
2023-04-06T05:12:20.929Z,5.55
2023-04-06T05:15:10.156Z,5.35
2023-04-06T05:17:58.530Z,4.97
2023-04-06T05:20:47.793Z,6.95
2023-04-06T05:23:35.636Z,7.55
2023-04-06T05:26:23.631Z,5.35
2023-04-06T05:29:12.398Z,5.40
2023-04-06T05:32:00.878Z,6.43
2023-04-06T05:34:48.803Z,5.60
2023-04-06T05:37:38.309Z,6.30
2023-04-06T05:40:26.295Z,5.25
2023-04-06T05:43:14.457Z,6.65
2023-04-06T05:46:02.692Z,6.22
2023-04-06T05:48:50.787Z,9.98
2023-04-06T05:51:38.537Z,8.18
2023-04-06T05:54:28.232Z,10.60
2023-04-06T05:57:17.419Z,11.95
2023-04-06T06:00:07.750Z,7.75
2023-04-06T06:02:55.764Z,14.02
2023-04-06T06:05:43.790Z,9.32
2023-04-06T06:08:31.562Z,13.43
2023-04-06T06:11:21.080Z,13.70
2023-04-06T06:14:08.894Z,14.13
2023-04-06T06:16:56.975Z,12.27
2023-04-06T06:19:45.167Z,9.05
2023-04-06T06:22:32.941Z,9.05
2023-04-06T06:25:22.379Z,15.52
2023-04-06T06:28:11.554Z,13.23
2023-04-06T06:30:59.518Z,12.65
2023-04-06T06:33:47.438Z,15.20
2023-04-06T06:36:36.345Z,14.57
2023-04-06T06:39:24.490Z,10.82
2023-04-06T06:42:14.635Z,8.73
2023-04-06T06:45:04.005Z,10.25
2023-04-06T06:47:54.882Z,13.05
2023-04-06T06:50:43.539Z,10.77
2023-04-06T06:53:31.443Z,13.02
2023-04-06T06:56:19.519Z,13.45
2023-04-06T06:59:07.840Z,11.57
2023-04-06T07:01:57.421Z,12.52
2023-04-06T07:04:45.516Z,10.98
2023-04-06T07:07:35.382Z,15.88
2023-04-06T07:10:24.111Z,13.15
2023-04-06T07:13:12.631Z,13.65
2023-04-06T07:16:00.828Z,13.35
2023-04-06T07:18:50.143Z,15.18
2023-04-06T07:21:38.010Z,13.25
2023-04-06T07:24:26.001Z,11.50
2023-04-06T07:27:14.054Z,11.23
2023-04-06T07:30:02.004Z,11.88
2023-04-06T07:32:50.307Z,14.00
2023-04-06T07:35:40.954Z,16.13
2023-04-06T07:38:29.319Z,10.65
2023-04-06T07:41:17.109Z,16.15
2023-04-06T07:44:05.843Z,12.27
2023-04-06T07:46:54.161Z,13.50
2023-04-06T07:49:42.332Z,10.90
2023-04-06T07:52:32.869Z,10.48
2023-04-06T07:55:20.736Z,9.75
2023-04-06T07:58:08.844Z,13.80
2023-04-06T08:00:58.716Z,14.82
2023-04-06T08:03:46.785Z,13.00
2023-04-06T08:06:35.253Z,13.70
2023-04-06T08:09:24.370Z,19.95
2023-04-06T08:12:12.549Z,16.60
2023-04-06T08:15:00.809Z,12.57
2023-04-06T08:17:48.888Z,13.68
2023-04-06T08:20:37.700Z,16.05
2023-04-06T08:23:25.777Z,14.30
2023-04-06T08:26:15.437Z,17.90
2023-04-06T08:29:05.059Z,17.45
2023-04-06T08:31:52.873Z,14.63
2023-04-06T08:34:41.070Z,15.93
2023-04-06T08:37:29.790Z,13.20
2023-04-06T08:40:17.906Z,14.23
2023-04-06T08:43:12.515Z,14.52
2023-04-06T08:46:01.449Z,11.30
2023-04-06T08:48:50.889Z,13.57
2023-04-06T08:51:44.037Z,12.55
2023-04-06T08:54:31.962Z,16.33
2023-04-06T08:57:21.183Z,15.90
2023-04-06T09:00:13.365Z,18.23
2023-04-06T09:03:02.084Z,16.23
2023-04-06T09:05:51.613Z,11.77
2023-04-06T09:08:43.552Z,14.45
2023-04-06T09:11:42.885Z,14.35
2023-04-06T09:14:38.444Z,13.60
2023-04-06T09:17:30.730Z,10.50
2023-04-06T09:20:26.843Z,14.05
2023-04-06T09:23:21.010Z,14.10
2023-04-06T09:26:11.050Z,13.00
2023-04-06T09:29:00.549Z,15.48
2023-04-06T09:31:48.609Z,12.25
2023-04-06T09:34:38.933Z,12.30
2023-04-06T09:37:29.977Z,11.88
2023-04-06T09:40:19.997Z,8.02
2023-04-06T09:43:08.072Z,9.15
2023-04-06T09:45:57.491Z,8.32
2023-04-06T09:48:46.133Z,10.25
2023-04-06T09:51:39.985Z,9.60
2023-04-06T09:54:32.303Z,11.18
2023-04-06T09:57:27.590Z,8.48
2023-04-06T10:00:20.327Z,7.80
2023-04-06T10:03:21.437Z,7.70
2023-04-06T10:06:14.917Z,7.20
2023-04-06T10:09:06.596Z,5.47
2023-04-06T10:11:54.895Z,12.45
2023-04-06T10:14:42.860Z,10.90
2023-04-06T10:17:31.060Z,12.45
2023-04-06T10:20:24.581Z,8.20
2023-04-06T10:23:17.102Z,7.10
2023-04-06T10:26:06.725Z,5.32
2023-04-06T10:28:55.845Z,5.18
2023-04-06T10:31:46.364Z,5.05
2023-04-06T10:34:38.104Z,9.85
2023-04-06T10:37:26.062Z,19.38
2023-04-06T10:40:22.237Z,5.97
2023-04-06T10:43:13.673Z,12.25
2023-04-06T10:46:03.524Z,8.60
2023-04-06T10:48:51.814Z,6.40
2023-04-06T10:51:41.421Z,10.65
2023-04-06T10:54:30.116Z,8.80
2023-04-06T10:57:18.248Z,6.25
2023-04-06T11:00:12.602Z,7.90
2023-04-06T11:03:03.001Z,7.00
2023-04-06T11:05:52.959Z,6.78
2023-04-06T11:08:41.606Z,6.00
2023-04-06T11:11:30.161Z,5.20
2023-04-06T11:14:17.824Z,6.10
2023-04-06T11:17:07.465Z,5.18
2023-04-06T11:19:56.016Z,3.97
2023-04-06T11:22:53.725Z,4.57
2023-04-06T11:25:51.813Z,6.50
2023-04-06T11:28:40.362Z,5.88
2023-04-06T11:31:28.817Z,4.78
2023-04-06T11:34:20.201Z,3.97
2023-04-06T11:37:11.053Z,5.22
2023-04-06T11:39:58.916Z,7.57
2023-04-06T11:42:55.941Z,6.03
2023-04-06T11:45:45.190Z,5.28
2023-04-06T11:48:34.479Z,5.45
2023-04-06T11:51:27.588Z,5.55
2023-04-06T11:54:15.451Z,4.25
2023-04-06T11:57:03.358Z,6.90
2023-04-06T11:59:51.507Z,4.55
2023-04-06T12:02:40.209Z,5.88
2023-04-06T12:05:28.605Z,5.15
2023-04-06T12:08:18.152Z,3.70
2023-04-06T12:11:05.920Z,4.78
2023-04-06T12:13:53.886Z,5.10
2023-04-06T12:16:42.587Z,5.65
2023-04-06T12:19:31.145Z,4.35
2023-04-06T12:22:20.846Z,4.97
2023-04-06T12:25:10.670Z,4.13
2023-04-06T12:27:59.011Z,3.50
2023-04-06T12:30:47.173Z,3.15
2023-04-06T12:33:35.402Z,4.18
2023-04-06T12:36:23.695Z,10.15
2023-04-06T12:39:12.046Z,4.78
2023-04-06T12:42:01.205Z,3.88
2023-04-06T12:44:49.266Z,8.10
2023-04-06T12:47:38.692Z,4.72
2023-04-06T12:50:27.509Z,6.68
2023-04-06T12:53:15.228Z,4.90
2023-04-06T12:56:04.469Z,5.50
2023-04-06T12:58:54.434Z,3.63
2023-04-06T13:01:42.553Z,4.00
2023-04-06T13:04:30.363Z,4.47
2023-04-06T13:07:18.478Z,6.82
2023-04-06T13:10:06.985Z,6.18
2023-04-06T13:12:55.076Z,5.78
2023-04-06T13:15:44.601Z,5.70
2023-04-06T13:18:33.421Z,5.50
2023-04-06T13:21:21.840Z,5.53
2023-04-06T13:24:10.252Z,6.57
2023-04-06T13:26:58.508Z,5.38
2023-04-06T13:29:46.298Z,4.63
2023-04-06T13:32:36.248Z,8.07
2023-04-06T13:35:24.015Z,4.63
2023-04-06T13:38:12.188Z,8.43
2023-04-06T13:41:00.553Z,5.28
2023-04-06T13:43:48.558Z,5.60
2023-04-06T13:46:36.373Z,3.70
2023-04-06T13:49:26.035Z,4.43
2023-04-06T13:52:14.175Z,8.02
2023-04-06T13:55:03.340Z,4.40
2023-04-06T13:57:51.300Z,7.75
2023-04-06T14:00:39.294Z,6.32
2023-04-06T14:03:27.338Z,4.10
2023-04-06T14:09:08.126Z,5.07
2023-04-06T14:11:56.793Z,4.05
2023-04-06T14:14:44.898Z,4.43
2023-04-06T14:17:33.082Z,4.28
2023-04-06T14:20:21.760Z,5.95
2023-04-06T14:23:11.640Z,4.65
2023-04-06T14:26:06.871Z,3.88
2023-04-06T14:28:54.969Z,7.80
2023-04-06T14:31:42.853Z,4.10
2023-04-06T14:34:30.798Z,3.70
2023-04-06T14:37:19.552Z,4.68
2023-04-06T14:40:10.339Z,5.90
2023-04-06T14:42:58.177Z,9.18
2023-04-06T14:45:46.086Z,4.32
2023-04-06T14:48:33.965Z,6.47
2023-04-06T14:51:21.891Z,4.40
2023-04-06T14:54:10.040Z,6.35
2023-04-06T14:56:59.068Z,4.95
2023-04-06T14:59:46.733Z,7.20
2023-04-06T15:02:35.689Z,4.93
2023-04-06T15:05:23.655Z,6.38
2023-04-06T15:08:12.534Z,10.20
2023-04-06T15:11:02.107Z,8.70
2023-04-06T15:13:51.631Z,5.50
2023-04-06T15:16:39.470Z,10.32
2023-04-06T15:19:27.905Z,8.10
2023-04-06T15:22:15.961Z,6.20
2023-04-06T15:25:03.892Z,4.03
2023-04-06T15:27:52.930Z,6.82
2023-04-06T15:30:42.069Z,5.07
2023-04-06T15:33:30.073Z,10.68
2023-04-06T15:36:27.231Z,4.70
2023-04-06T15:39:15.087Z,5.97
2023-04-06T15:42:03.254Z,7.45
2023-04-06T15:44:51.163Z,8.88
2023-04-06T15:47:42.251Z,5.78
2023-04-06T15:50:30.038Z,8.32
2023-04-06T15:53:18.086Z,4.82
2023-04-06T15:56:08.606Z,4.95
2023-04-06T15:58:56.463Z,3.88
2023-04-06T16:01:44.371Z,4.47
2023-04-06T16:04:33.741Z,5.95
2023-04-06T16:07:22.007Z,5.78
2023-04-06T16:10:11.743Z,5.68
2023-04-06T16:12:59.704Z,6.05
2023-04-06T16:15:52.054Z,6.00
2023-04-06T16:18:40.105Z,4.95
2023-04-06T16:21:29.393Z,4.50
2023-04-06T16:24:17.341Z,2.97
2023-04-06T16:27:05.140Z,3.08
2023-04-06T16:29:53.323Z,3.75
2023-04-06T16:32:43.393Z,3.47
2023-04-06T16:35:31.263Z,2.53
2023-04-06T16:38:22.761Z,2.67
2023-04-06T16:41:10.674Z,3.03
2023-04-06T16:43:58.844Z,3.63
2023-04-06T16:46:47.718Z,4.38
2023-04-06T16:49:35.506Z,7.65
2023-04-06T16:52:23.531Z,6.03
2023-04-06T16:55:13.318Z,6.55
2023-04-06T16:58:02.278Z,7.68
2023-04-06T17:00:50.219Z,5.32
2023-04-06T17:03:38.051Z,3.58
2023-04-06T17:06:27.095Z,5.70
2023-04-06T17:09:14.733Z,3.97
2023-04-06T17:12:04.225Z,5.00
2023-04-06T17:14:52.442Z,4.30
2023-04-06T17:17:40.593Z,6.65
2023-04-06T17:20:28.274Z,6.68
2023-04-06T17:23:17.103Z,4.65
2023-04-06T17:26:06.076Z,3.63
2023-04-06T17:28:56.565Z,4.13
2023-04-06T17:31:46.255Z,4.07
2023-04-06T17:34:34.045Z,4.45
2023-04-06T17:37:22.069Z,3.30
2023-04-06T17:40:11.097Z,4.85
2023-04-06T17:42:59.078Z,4.45
2023-04-06T17:45:51.418Z,5.60
2023-04-06T17:48:39.609Z,4.22
2023-04-06T17:51:27.686Z,5.57
2023-04-06T17:54:15.697Z,4.53
2023-04-06T17:57:03.832Z,5.80
2023-04-06T17:59:51.610Z,4.70
2023-04-06T18:02:40.936Z,4.30
2023-04-06T18:05:28.821Z,5.55
2023-04-06T18:08:16.861Z,3.85
2023-04-06T18:11:04.793Z,6.45
2023-04-06T18:13:52.781Z,6.22
2023-04-06T18:16:42.403Z,6.72
2023-04-06T18:19:34.292Z,7.97
2023-04-06T18:22:22.214Z,8.18
2023-04-06T18:25:10.664Z,6.50
2023-04-06T18:27:58.798Z,6.13
2023-04-06T18:30:46.731Z,8.02
2023-04-06T18:33:34.717Z,7.07
2023-04-06T18:36:24.116Z,5.38
2023-04-06T18:39:13.588Z,6.13
2023-04-06T18:42:03.008Z,5.13
2023-04-06T18:44:51.208Z,6.68
2023-04-06T18:47:39.196Z,7.00
2023-04-06T18:50:27.363Z,9.43
2023-04-06T18:53:16.757Z,5.93
2023-04-06T18:56:06.259Z,10.10
2023-04-06T18:58:54.272Z,6.05
2023-04-06T19:01:44.874Z,6.85
2023-04-06T19:04:33.262Z,9.00
2023-04-06T19:07:22.291Z,6.22
2023-04-06T19:10:12.651Z,9.38
2023-04-06T19:13:00.948Z,8.20
2023-04-06T19:15:48.604Z,8.57
2023-04-06T19:18:37.298Z,8.30
2023-04-06T19:21:27.848Z,8.13
2023-04-06T19:24:15.931Z,8.93
2023-04-06T19:27:05.687Z,7.78
2023-04-06T19:29:54.360Z,7.82
2023-04-06T19:32:42.140Z,7.95
2023-04-06T19:35:30.639Z,8.35
2023-04-06T19:38:18.530Z,9.45
2023-04-06T19:41:07.118Z,9.40
2023-04-06T19:43:57.783Z,9.35
2023-04-06T19:46:46.443Z,11.38
2023-04-06T19:49:34.253Z,10.35
2023-04-06T19:52:22.708Z,11.57
2023-04-06T19:55:11.644Z,10.98
2023-04-06T19:57:59.670Z,12.23
2023-04-06T20:00:49.101Z,10.27
2023-04-06T20:03:37.432Z,9.90
2023-04-06T20:06:25.522Z,11.43
2023-04-06T20:09:15.666Z,8.82
2023-04-06T20:12:03.773Z,10.50
2023-04-06T20:14:52.047Z,10.63
2023-04-06T20:17:42.767Z,10.38
2023-04-06T20:20:31.098Z,10.20
2023-04-06T20:23:19.336Z,11.95
2023-04-06T20:26:11.054Z,10.18
2023-04-06T20:28:58.822Z,10.30
2023-04-06T20:31:46.952Z,10.57
2023-04-06T20:34:37.275Z,9.43
2023-04-06T20:37:25.553Z,11.00
2023-04-06T20:40:13.845Z,10.48
2023-04-06T20:43:02.877Z,11.40
2023-04-06T20:45:51.723Z,10.88
2023-04-06T20:48:39.817Z,10.30
2023-04-06T20:51:29.497Z,8.63
2023-04-06T20:54:17.738Z,8.10
2023-04-06T20:57:05.502Z,8.30
2023-04-06T20:59:53.603Z,8.88
2023-04-06T21:02:42.292Z,9.30
2023-04-06T21:05:31.002Z,8.80
2023-04-06T21:08:19.994Z,9.38
2023-04-06T21:11:07.798Z,8.32
2023-04-06T21:13:55.767Z,9.23
2023-04-06T21:16:44.065Z,10.60
2023-04-06T21:19:32.032Z,9.32
2023-04-06T21:22:20.021Z,8.48
2023-04-06T21:25:11.066Z,9.25
2023-04-06T21:27:59.674Z,8.88
2023-04-06T21:30:47.701Z,10.10
2023-04-06T21:33:35.922Z,9.13
2023-04-06T21:36:23.710Z,9.45
2023-04-06T21:39:14.584Z,12.48
2023-04-06T21:42:03.818Z,17.75
2023-04-06T21:44:51.676Z,9.63
2023-04-06T21:47:39.911Z,12.25
2023-04-06T21:50:27.601Z,9.73
2023-04-06T21:53:15.796Z,11.77
2023-04-06T21:56:03.905Z,10.00
2023-04-06T21:58:54.049Z,10.88
2023-04-06T22:01:41.868Z,11.85
2023-04-06T22:04:31.684Z,10.77
2023-04-06T22:07:19.766Z,14.20
2023-04-06T22:10:08.881Z,12.13
2023-04-06T22:12:57.332Z,10.90
2023-04-06T22:15:46.857Z,13.10
2023-04-06T22:18:36.596Z,12.10
2023-04-06T22:21:26.565Z,13.02
2023-04-06T22:24:15.171Z,15.27
2023-04-06T22:27:04.147Z,13.43
2023-04-06T22:29:51.926Z,15.55
2023-04-06T22:32:41.232Z,16.52
2023-04-06T22:35:29.326Z,15.93
2023-04-06T22:38:17.607Z,18.08
2023-04-06T22:41:07.218Z,15.57
2023-04-06T22:43:56.216Z,18.05
2023-04-06T22:46:44.199Z,16.58
2023-04-06T22:49:33.803Z,18.42
2023-04-06T22:52:21.967Z,19.17
2023-04-06T22:55:10.183Z,18.00
2023-04-06T22:57:57.880Z,16.98
2023-04-06T23:00:45.810Z,18.80
2023-04-06T23:03:34.019Z,20.05
2023-04-06T23:06:23.615Z,21.08
2023-04-06T23:09:11.808Z,18.92
2023-04-06T23:11:59.785Z,16.15
2023-04-06T23:14:47.889Z,17.52
2023-04-06T23:17:37.109Z,17.63
2023-04-06T23:20:25.589Z,16.70
2023-04-06T23:23:19.025Z,17.15
2023-04-06T23:26:07.787Z,18.80
2023-04-06T23:29:00.847Z,18.02
2023-04-06T23:31:48.953Z,17.05
2023-04-06T23:34:39.067Z,18.63
2023-04-06T23:37:27.298Z,15.18
2023-04-06T23:40:16.616Z,15.50
2023-04-06T23:43:04.440Z,16.77
2023-04-06T23:45:52.165Z,13.93
2023-04-06T23:48:44.310Z,15.80
2023-04-06T23:51:32.484Z,13.60
2023-04-06T23:54:22.406Z,14.77
2023-04-06T23:57:11.855Z,18.75
